Needingworth, United Kingdom
Current Conditions -  °F | °C
As of 7:50 PM on Sunday 23 Nov 2014 (Local Time) from EGSC Reporting Station
Scattered Clouds Scattered Clouds  
Wind Chill: 41°   Ceiling: Unl
Heat Index: 45°   Visibility: 4mi
Dew Point: 43°   Wind: 6mph
Humidity: 93%   Direction: 280°W
Pressure: 30.09"   Gusts: NA
Location:  52.33°N, 0.03°W
Report Text: EGSC 231950Z 28005KT 7000 SCT010 07/06 Q1019
Loading
Personal Weather Stations






























Interactive Weather Map New forecast layout! Learn more

10-Day Weather Forecast

Advertisements
Track Severe Weather on mobile